< < Back
Terminal Aerodrome Forecast


Current Version              Previous Versions:   1  2  3  4  5  6  7  8  9  

Terminal Aerodrome Forecast

229
FTUS42 KMLB 040533
TAFDAB
TAF
KDAB 040533Z 0406/0506 26003KT P6SM FEW035 SCT250
     FM041300 31004KT P6SM SCT030 SCT250
     FM041800 06007KT P6SM VCTS SCT035CB SCT250
      TEMPO 0418/0421 TS BKN035CB BKN070
     FM050000 05004KT P6SM VCSH SCT035 BKN070=



Latest METAR

099
SAUS80 KWBC 041200 RRA
MTRDAB
METAR KDAB 041153Z 28003KT 7SM SCT090 SCT150 BKN250 26/24 A2996 RMK AO2
SLP146 T02560244 10261 20244 53016


USA.gov is the U.S. government's official web portal to all federal, state and local government web resources and services.